sensor_id;sensor_type;location;lat;lon;timestamp;P1;durP1;ratioP1;P2;durP2;ratioP2
55776;SDS011;54079;44.540;18.784;2022-11-18T00:02:19;5.53;;;3.20;;
55776;SDS011;54079;44.540;18.784;2022-11-18T00:04:45;4.32;;;2.47;;
55776;SDS011;54079;44.540;18.784;2022-11-18T00:07:11;4.43;;;2.20;;
55776;SDS011;54079;44.540;18.784;2022-11-18T00:09:36;5.60;;;1.70;;
55776;SDS011;54079;44.540;18.784;2022-11-18T00:12:02;2.45;;;1.67;;
55776;SDS011;54079;44.540;18.784;2022-11-18T00:14:47;2.85;;;2.13;;
55776;SDS011;54079;44.540;18.784;2022-11-18T00:17:13;3.25;;;2.25;;
55776;SDS011;54079;44.540;18.784;2022-11-18T00:19:39;5.03;;;2.92;;
55776;SDS011;54079;44.540;18.784;2022-11-18T00:22:06;6.20;;;3.83;;
55776;SDS011;54079;44.540;18.784;2022-11-18T00:24:35;4.80;;;3.85;;
55776;SDS011;54079;44.540;18.784;2022-11-18T00:27:01;5.80;;;3.78;;
55776;SDS011;54079;44.540;18.784;2022-11-18T00:29:27;4.47;;;2.83;;
55776;SDS011;54079;44.540;18.784;2022-11-18T00:31:55;4.30;;;1.77;;
55776;SDS011;54079;44.540;18.784;2022-11-18T00:34:21;4.63;;;2.67;;
55776;SDS011;54079;44.540;18.784;2022-11-18T00:36:48;2.58;;;2.30;;
55776;SDS011;54079;44.540;18.784;2022-11-18T00:39:14;3.28;;;1.90;;
55776;SDS011;54079;44.540;18.784;2022-11-18T00:41:42;2.90;;;1.80;;
55776;SDS011;54079;44.540;18.784;2022-11-18T00:44:27;2.42;;;1.65;;
55776;SDS011;54079;44.540;18.784;2022-11-18T00:46:53;2.22;;;1.38;;
55776;SDS011;54079;44.540;18.784;2022-11-18T00:49:19;2.45;;;1.15;;
55776;SDS011;54079;44.540;18.784;2022-11-18T00:51:45;3.63;;;1.55;;
55776;SDS011;54079;44.540;18.784;2022-11-18T00:54:11;4.03;;;1.70;;
55776;SDS011;54079;44.540;18.784;2022-11-18T00:56:37;4.70;;;2.58;;
55776;SDS011;54079;44.540;18.784;2022-11-18T00:59:03;3.65;;;2.30;;
55776;SDS011;54079;44.540;18.784;2022-11-18T01:01:29;3.20;;;1.55;;
55776;SDS011;54079;44.540;18.784;2022-11-18T01:03:56;5.43;;;2.30;;
55776;SDS011;54079;44.540;18.784;2022-11-18T01:06:22;4.22;;;1.55;;
55776;SDS011;54079;44.540;18.784;2022-11-18T01:08:48;3.58;;;1.63;;
55776;SDS011;54079;44.540;18.784;2022-11-18T01:11:14;2.35;;;1.25;;
55776;SDS011;54079;44.540;18.784;2022-11-18T01:13:59;2.22;;;1.85;;
55776;SDS011;54079;44.540;18.784;2022-11-18T01:16:25;7.72;;;1.65;;
55776;SDS011;54079;44.540;18.784;2022-11-18T01:18:52;1.88;;;1.20;;
55776;SDS011;54079;44.540;18.784;2022-11-18T01:21:18;2.83;;;1.55;;
55776;SDS011;54079;44.540;18.784;2022-11-18T01:23:44;2.13;;;1.48;;
55776;SDS011;54079;44.540;18.784;2022-11-18T01:26:11;3.88;;;1.27;;
55776;SDS011;54079;44.540;18.784;2022-11-18T01:28:38;3.35;;;1.63;;
55776;SDS011;54079;44.540;18.784;2022-11-18T01:31:09;2.33;;;1.33;;
55776;SDS011;54079;44.540;18.784;2022-11-18T01:33:37;2.83;;;0.82;;
55776;SDS011;54079;44.540;18.784;2022-11-18T01:36:04;3.03;;;1.08;;
55776;SDS011;54079;44.540;18.784;2022-11-18T01:38:45;3.75;;;1.75;;
55776;SDS011;54079;44.540;18.784;2022-11-18T01:41:12;1.95;;;1.15;;
55776;SDS011;54079;44.540;18.784;2022-11-18T01:44:52;4.38;;;1.75;;
55776;SDS011;54079;44.540;18.784;2022-11-18T01:46:51;1.83;;;0.73;;
55776;SDS011;54079;44.540;18.784;2022-11-18T01:49:17;5.18;;;1.05;;
55776;SDS011;54079;44.540;18.784;2022-11-18T01:51:45;3.15;;;1.20;;
55776;SDS011;54079;44.540;18.784;2022-11-18T01:54:19;2.42;;;1.00;;
55776;SDS011;54079;44.540;18.784;2022-11-18T01:56:56;2.13;;;1.42;;
55776;SDS011;54079;44.540;18.784;2022-11-18T01:59:27;2.13;;;1.35;;
55776;SDS011;54079;44.540;18.784;2022-11-18T02:01:55;4.40;;;1.38;;
55776;SDS011;54079;44.540;18.784;2022-11-18T02:04:22;3.08;;;1.05;;
55776;SDS011;54079;44.540;18.784;2022-11-18T02:06:49;2.42;;;1.10;;
55776;SDS011;54079;44.540;18.784;2022-11-18T02:09:16;7.55;;;1.45;;
55776;SDS011;54079;44.540;18.784;2022-11-18T02:11:42;2.83;;;1.27;;
55776;SDS011;54079;44.540;18.784;2022-11-18T02:14:15;2.17;;;1.60;;
55776;SDS011;54079;44.540;18.784;2022-11-18T02:16:48;3.92;;;1.67;;
55776;SDS011;54079;44.540;18.784;2022-11-18T02:19:37;3.20;;;1.17;;
55776;SDS011;54079;44.540;18.784;2022-11-18T02:27:56;3.55;;;1.85;;
55776;SDS011;54079;44.540;18.784;2022-11-18T02:30:33;10.68;;;1.30;;
55776;SDS011;54079;44.540;18.784;2022-11-18T02:33:11;1.98;;;1.15;;
55776;SDS011;54079;44.540;18.784;2022-11-18T02:35:43;3.42;;;1.30;;
55776;SDS011;54079;44.540;18.784;2022-11-18T02:38:25;3.15;;;1.27;;
55776;SDS011;54079;44.540;18.784;2022-11-18T02:40:55;1.83;;;0.80;;
55776;SDS011;54079;44.540;18.784;2022-11-18T02:43:28;2.15;;;1.15;;
55776;SDS011;54079;44.540;18.784;2022-11-18T02:45:59;4.35;;;1.50;;
55776;SDS011;54079;44.540;18.784;2022-11-18T02:48:29;3.55;;;1.67;;
55776;SDS011;54079;44.540;18.784;2022-11-18T02:50:58;4.03;;;1.45;;
55776;SDS011;54079;44.540;18.784;2022-11-18T02:53:27;2.65;;;1.25;;
55776;SDS011;54079;44.540;18.784;2022-11-18T02:55:55;2.30;;;1.10;;
55776;SDS011;54079;44.540;18.784;2022-11-18T02:58:22;4.18;;;1.10;;
55776;SDS011;54079;44.540;18.784;2022-11-18T03:00:53;3.15;;;1.27;;
55776;SDS011;54079;44.540;18.784;2022-11-18T03:03:26;4.07;;;1.27;;
55776;SDS011;54079;44.540;18.784;2022-11-18T03:11:27;1.63;;;1.40;;
55776;SDS011;54079;44.540;18.784;2022-11-18T03:19:47;1.98;;;1.30;;
55776;SDS011;54079;44.540;18.784;2022-11-18T03:22:22;7.75;;;2.88;;
55776;SDS011;54079;44.540;18.784;2022-11-18T03:25:03;4.20;;;2.38;;
55776;SDS011;54079;44.540;18.784;2022-11-18T03:27:53;2.95;;;1.40;;
55776;SDS011;54079;44.540;18.784;2022-11-18T03:30:30;3.45;;;1.30;;
55776;SDS011;54079;44.540;18.784;2022-11-18T03:33:03;1.33;;;0.80;;
55776;SDS011;54079;44.540;18.784;2022-11-18T03:35:34;1.15;;;0.73;;
55776;SDS011;54079;44.540;18.784;2022-11-18T03:38:05;3.20;;;1.20;;
55776;SDS011;54079;44.540;18.784;2022-11-18T03:40:35;2.25;;;0.77;;
55776;SDS011;54079;44.540;18.784;2022-11-18T03:43:07;1.63;;;0.98;;
55776;SDS011;54079;44.540;18.784;2022-11-18T03:48:15;5.15;;;1.17;;
55776;SDS011;54079;44.540;18.784;2022-11-18T03:50:47;3.22;;;1.20;;
55776;SDS011;54079;44.540;18.784;2022-11-18T03:53:21;2.03;;;0.95;;
55776;SDS011;54079;44.540;18.784;2022-11-18T03:55:53;1.20;;;0.93;;
55776;SDS011;54079;44.540;18.784;2022-11-18T03:58:30;0.75;;;0.50;;
55776;SDS011;54079;44.540;18.784;2022-11-18T04:01:02;1.63;;;0.80;;
55776;SDS011;54079;44.540;18.784;2022-11-18T04:03:34;1.23;;;0.70;;
55776;SDS011;54079;44.540;18.784;2022-11-18T04:06:14;2.17;;;0.60;;
55776;SDS011;54079;44.540;18.784;2022-11-18T04:09:05;1.65;;;0.82;;
55776;SDS011;54079;44.540;18.784;2022-11-18T04:11:41;0.68;;;0.57;;
55776;SDS011;54079;44.540;18.784;2022-11-18T04:14:38;3.78;;;0.75;;
55776;SDS011;54079;44.540;18.784;2022-11-18T04:17:08;1.05;;;0.40;;
55776;SDS011;54079;44.540;18.784;2022-11-18T04:19:38;0.88;;;0.47;;
55776;SDS011;54079;44.540;18.784;2022-11-18T04:22:05;1.00;;;0.55;;
55776;SDS011;54079;44.540;18.784;2022-11-18T04:24:32;0.93;;;0.63;;
55776;SDS011;54079;44.540;18.784;2022-11-18T04:26:58;1.13;;;0.82;;
55776;SDS011;54079;44.540;18.784;2022-11-18T04:29:26;2.17;;;0.70;;
55776;SDS011;54079;44.540;18.784;2022-11-18T04:31:53;1.65;;;0.52;;
55776;SDS011;54079;44.540;18.784;2022-11-18T04:34:18;1.33;;;0.55;;
55776;SDS011;54079;44.540;18.784;2022-11-18T04:36:44;0.93;;;0.55;;
55776;SDS011;54079;44.540;18.784;2022-11-18T04:39:10;0.98;;;0.80;;
55776;SDS011;54079;44.540;18.784;2022-11-18T04:41:36;1.15;;;0.80;;
55776;SDS011;54079;44.540;18.784;2022-11-18T04:44:24;1.08;;;0.80;;
55776;SDS011;54079;44.540;18.784;2022-11-18T04:46:52;3.22;;;0.90;;
55776;SDS011;54079;44.540;18.784;2022-11-18T04:49:18;1.65;;;0.70;;
55776;SDS011;54079;44.540;18.784;2022-11-18T04:51:45;2.50;;;0.57;;
55776;SDS011;54079;44.540;18.784;2022-11-18T04:54:11;3.15;;;0.70;;
55776;SDS011;54079;44.540;18.784;2022-11-18T04:56:38;1.23;;;0.68;;
55776;SDS011;54079;44.540;18.784;2022-11-18T04:59:05;2.40;;;0.75;;
55776;SDS011;54079;44.540;18.784;2022-11-18T05:01:31;0.80;;;0.50;;
55776;SDS011;54079;44.540;18.784;2022-11-18T05:03:58;0.60;;;0.40;;
55776;SDS011;54079;44.540;18.784;2022-11-18T05:06:26;1.40;;;0.80;;
55776;SDS011;54079;44.540;18.784;2022-11-18T05:08:52;0.60;;;0.60;;
55776;SDS011;54079;44.540;18.784;2022-11-18T05:11:18;2.00;;;0.68;;
55776;SDS011;54079;44.540;18.784;2022-11-18T05:14:02;1.17;;;0.30;;
55776;SDS011;54079;44.540;18.784;2022-11-18T05:16:28;1.83;;;0.90;;
55776;SDS011;54079;44.540;18.784;2022-11-18T05:18:54;1.52;;;0.68;;
55776;SDS011;54079;44.540;18.784;2022-11-18T05:21:20;1.55;;;0.80;;
55776;SDS011;54079;44.540;18.784;2022-11-18T05:23:46;0.85;;;0.43;;
55776;SDS011;54079;44.540;18.784;2022-11-18T05:26:12;1.88;;;0.60;;
55776;SDS011;54079;44.540;18.784;2022-11-18T05:28:38;3.70;;;0.90;;
55776;SDS011;54079;44.540;18.784;2022-11-18T05:31:07;0.52;;;0.45;;
55776;SDS011;54079;44.540;18.784;2022-11-18T05:33:38;2.83;;;0.68;;
55776;SDS011;54079;44.540;18.784;2022-11-18T05:36:05;0.85;;;0.50;;
55776;SDS011;54079;44.540;18.784;2022-11-18T05:38:33;0.43;;;0.30;;
55776;SDS011;54079;44.540;18.784;2022-11-18T05:41:00;3.22;;;1.15;;
55776;SDS011;54079;44.540;18.784;2022-11-18T05:43:27;0.90;;;0.40;;
55776;SDS011;54079;44.540;18.784;2022-11-18T05:45:53;1.23;;;0.47;;
55776;SDS011;54079;44.540;18.784;2022-11-18T05:48:19;0.85;;;0.50;;
55776;SDS011;54079;44.540;18.784;2022-11-18T05:50:46;1.52;;;0.70;;
55776;SDS011;54079;44.540;18.784;2022-11-18T05:53:15;0.55;;;0.25;;
55776;SDS011;54079;44.540;18.784;2022-11-18T05:55:56;0.60;;;0.25;;
55776;SDS011;54079;44.540;18.784;2022-11-18T05:58:23;2.30;;;0.47;;
55776;SDS011;54079;44.540;18.784;2022-11-18T06:00:49;1.35;;;0.30;;
55776;SDS011;54079;44.540;18.784;2022-11-18T06:03:20;1.27;;;0.50;;
55776;SDS011;54079;44.540;18.784;2022-11-18T06:05:51;2.17;;;0.75;;
55776;SDS011;54079;44.540;18.784;2022-11-18T06:08:18;1.05;;;0.57;;
55776;SDS011;54079;44.540;18.784;2022-11-18T06:10:45;1.48;;;0.43;;
55776;SDS011;54079;44.540;18.784;2022-11-18T06:13:14;1.65;;;0.68;;
55776;SDS011;54079;44.540;18.784;2022-11-18T06:15:47;2.42;;;0.50;;
55776;SDS011;54079;44.540;18.784;2022-11-18T06:20:47;0.77;;;0.40;;
55776;SDS011;54079;44.540;18.784;2022-11-18T06:23:13;1.05;;;0.45;;
55776;SDS011;54079;44.540;18.784;2022-11-18T06:25:39;1.35;;;0.50;;
55776;SDS011;54079;44.540;18.784;2022-11-18T06:28:06;0.90;;;0.28;;
55776;SDS011;54079;44.540;18.784;2022-11-18T06:30:34;0.98;;;0.40;;
55776;SDS011;54079;44.540;18.784;2022-11-18T06:33:00;1.52;;;0.40;;
55776;SDS011;54079;44.540;18.784;2022-11-18T06:35:26;2.40;;;0.45;;
55776;SDS011;54079;44.540;18.784;2022-11-18T06:37:52;1.83;;;0.80;;
55776;SDS011;54079;44.540;18.784;2022-11-18T06:40:18;1.60;;;0.30;;
55776;SDS011;54079;44.540;18.784;2022-11-18T06:42:44;2.95;;;1.40;;
55776;SDS011;54079;44.540;18.784;2022-11-18T06:45:28;2.03;;;0.50;;
55776;SDS011;54079;44.540;18.784;2022-11-18T06:47:58;1.13;;;0.50;;
55776;SDS011;54079;44.540;18.784;2022-11-18T06:50:25;0.55;;;0.30;;
55776;SDS011;54079;44.540;18.784;2022-11-18T06:52:51;0.75;;;0.20;;
55776;SDS011;54079;44.540;18.784;2022-11-18T06:55:17;0.70;;;0.20;;
55776;SDS011;54079;44.540;18.784;2022-11-18T06:57:44;0.80;;;0.57;;
55776;SDS011;54079;44.540;18.784;2022-11-18T07:00:10;0.90;;;0.52;;
55776;SDS011;54079;44.540;18.784;2022-11-18T07:02:36;2.53;;;0.45;;
55776;SDS011;54079;44.540;18.784;2022-11-18T07:05:03;1.48;;;0.60;;
55776;SDS011;54079;44.540;18.784;2022-11-18T07:07:30;1.13;;;0.52;;
55776;SDS011;54079;44.540;18.784;2022-11-18T07:09:59;1.00;;;0.20;;
55776;SDS011;54079;44.540;18.784;2022-11-18T07:12:24;0.47;;;0.30;;
55776;SDS011;54079;44.540;18.784;2022-11-18T07:14:50;2.35;;;0.60;;
55776;SDS011;54079;44.540;18.784;2022-11-18T07:17:16;2.25;;;0.40;;
55776;SDS011;54079;44.540;18.784;2022-11-18T07:19:42;4.72;;;0.50;;
55776;SDS011;54079;44.540;18.784;2022-11-18T07:22:08;1.13;;;0.55;;
55776;SDS011;54079;44.540;18.784;2022-11-18T07:24:34;1.20;;;0.60;;
55776;SDS011;54079;44.540;18.784;2022-11-18T07:27:02;1.25;;;1.00;;
55776;SDS011;54079;44.540;18.784;2022-11-18T07:29:27;2.10;;;1.60;;
55776;SDS011;54079;44.540;18.784;2022-11-18T07:31:53;3.00;;;0.60;;
55776;SDS011;54079;44.540;18.784;2022-11-18T07:34:19;4.18;;;1.40;;
55776;SDS011;54079;44.540;18.784;2022-11-18T07:36:45;4.00;;;1.60;;
55776;SDS011;54079;44.540;18.784;2022-11-18T07:39:11;3.00;;;1.30;;
55776;SDS011;54079;44.540;18.784;2022-11-18T07:41:38;4.80;;;1.50;;
55776;SDS011;54079;44.540;18.784;2022-11-18T07:44:04;5.00;;;1.60;;
55776;SDS011;54079;44.540;18.784;2022-11-18T07:46:35;1.70;;;0.77;;
55776;SDS011;54079;44.540;18.784;2022-11-18T07:49:02;2.25;;;1.25;;
55776;SDS011;54079;44.540;18.784;2022-11-18T07:51:31;2.80;;;1.75;;
55776;SDS011;54079;44.540;18.784;2022-11-18T07:53:59;4.40;;;1.75;;
55776;SDS011;54079;44.540;18.784;2022-11-18T07:56:26;2.83;;;0.73;;
55776;SDS011;54079;44.540;18.784;2022-11-18T07:58:52;2.95;;;0.90;;
55776;SDS011;54079;44.540;18.784;2022-11-18T08:01:20;7.55;;;1.98;;
55776;SDS011;54079;44.540;18.784;2022-11-18T08:03:48;2.58;;;1.67;;
55776;SDS011;54079;44.540;18.784;2022-11-18T08:06:15;4.22;;;1.77;;
55776;SDS011;54079;44.540;18.784;2022-11-18T08:08:43;7.55;;;3.55;;
55776;SDS011;54079;44.540;18.784;2022-11-18T08:11:10;9.63;;;5.80;;
55776;SDS011;54079;44.540;18.784;2022-11-18T08:13:38;7.70;;;4.95;;
55776;SDS011;54079;44.540;18.784;2022-11-18T08:16:06;12.48;;;5.97;;
55776;SDS011;54079;44.540;18.784;2022-11-18T08:18:43;9.85;;;5.68;;
55776;SDS011;54079;44.540;18.784;2022-11-18T08:21:09;10.18;;;5.78;;
55776;SDS011;54079;44.540;18.784;2022-11-18T08:23:35;7.90;;;3.80;;
55776;SDS011;54079;44.540;18.784;2022-11-18T08:26:02;5.45;;;3.47;;
55776;SDS011;54079;44.540;18.784;2022-11-18T08:28:29;10.15;;;6.63;;
55776;SDS011;54079;44.540;18.784;2022-11-18T08:30:56;10.57;;;6.82;;
55776;SDS011;54079;44.540;18.784;2022-11-18T08:33:22;7.38;;;4.25;;
55776;SDS011;54079;44.540;18.784;2022-11-18T08:35:48;6.95;;;3.63;;
55776;SDS011;54079;44.540;18.784;2022-11-18T08:38:14;7.50;;;4.03;;
55776;SDS011;54079;44.540;18.784;2022-11-18T08:40:40;4.15;;;2.75;;
55776;SDS011;54079;44.540;18.784;2022-11-18T08:43:10;3.08;;;1.20;;
55776;SDS011;54079;44.540;18.784;2022-11-18T08:45:37;3.47;;;1.92;;
55776;SDS011;54079;44.540;18.784;2022-11-18T08:48:04;2.70;;;1.48;;
55776;SDS011;54079;44.540;18.784;2022-11-18T08:50:30;3.78;;;2.05;;
55776;SDS011;54079;44.540;18.784;2022-11-18T08:52:56;6.30;;;3.55;;
55776;SDS011;54079;44.540;18.784;2022-11-18T08:55:22;6.13;;;2.60;;
55776;SDS011;54079;44.540;18.784;2022-11-18T08:57:48;4.22;;;2.40;;
55776;SDS011;54079;44.540;18.784;2022-11-18T09:00:14;5.93;;;3.70;;
55776;SDS011;54079;44.540;18.784;2022-11-18T09:02:40;4.85;;;2.42;;
55776;SDS011;54079;44.540;18.784;2022-11-18T09:05:06;4.00;;;1.48;;
55776;SDS011;54079;44.540;18.784;2022-11-18T09:07:32;2.58;;;1.25;;
55776;SDS011;54079;44.540;18.784;2022-11-18T09:09:58;2.55;;;1.70;;
55776;SDS011;54079;44.540;18.784;2022-11-18T09:12:24;5.10;;;2.00;;
55776;SDS011;54079;44.540;18.784;2022-11-18T09:14:50;2.70;;;1.38;;
55776;SDS011;54079;44.540;18.784;2022-11-18T09:17:16;4.68;;;1.85;;
55776;SDS011;54079;44.540;18.784;2022-11-18T09:19:42;5.07;;;1.33;;
55776;SDS011;54079;44.540;18.784;2022-11-18T09:22:08;2.38;;;1.58;;
55776;SDS011;54079;44.540;18.784;2022-11-18T09:24:34;3.70;;;2.63;;
55776;SDS011;54079;44.540;18.784;2022-11-18T09:27:02;3.28;;;2.50;;
55776;SDS011;54079;44.540;18.784;2022-11-18T09:29:30;3.63;;;2.22;;
55776;SDS011;54079;44.540;18.784;2022-11-18T09:31:56;4.55;;;3.00;;
55776;SDS011;54079;44.540;18.784;2022-11-18T09:34:22;4.50;;;2.15;;
55776;SDS011;54079;44.540;18.784;2022-11-18T09:36:48;5.13;;;2.45;;
55776;SDS011;54079;44.540;18.784;2022-11-18T09:39:14;4.05;;;1.80;;
55776;SDS011;54079;44.540;18.784;2022-11-18T09:41:43;3.05;;;1.55;;
55776;SDS011;54079;44.540;18.784;2022-11-18T09:47:03;4.25;;;1.92;;
55776;SDS011;54079;44.540;18.784;2022-11-18T09:49:50;3.85;;;2.15;;
55776;SDS011;54079;44.540;18.784;2022-11-18T09:54:47;2.50;;;1.70;;
55776;SDS011;54079;44.540;18.784;2022-11-18T09:57:15;3.47;;;1.70;;
55776;SDS011;54079;44.540;18.784;2022-11-18T09:59:44;4.60;;;2.17;;
55776;SDS011;54079;44.540;18.784;2022-11-18T10:05:06;4.10;;;3.00;;
55776;SDS011;54079;44.540;18.784;2022-11-18T10:08:22;8.98;;;5.15;;
55776;SDS011;54079;44.540;18.784;2022-11-18T10:10:36;4.78;;;2.28;;
55776;SDS011;54079;44.540;18.784;2022-11-18T10:13:30;4.55;;;2.10;;
55776;SDS011;54079;44.540;18.784;2022-11-18T10:19:18;6.68;;;3.63;;
55776;SDS011;54079;44.540;18.784;2022-11-18T10:24:58;2.35;;;2.15;;
55776;SDS011;54079;44.540;18.784;2022-11-18T10:27:36;2.50;;;1.83;;
55776;SDS011;54079;44.540;18.784;2022-11-18T10:30:10;4.10;;;1.80;;
55776;SDS011;54079;44.540;18.784;2022-11-18T10:32:52;3.88;;;2.05;;
55776;SDS011;54079;44.540;18.784;2022-11-18T10:35:27;3.75;;;2.42;;
55776;SDS011;54079;44.540;18.784;2022-11-18T10:46:18;3.60;;;1.60;;
55776;SDS011;54079;44.540;18.784;2022-11-18T10:51:34;2.13;;;1.92;;
55776;SDS011;54079;44.540;18.784;2022-11-18T10:54:12;6.13;;;3.47;;
55776;SDS011;54079;44.540;18.784;2022-11-18T10:56:50;5.22;;;3.13;;
55776;SDS011;54079;44.540;18.784;2022-11-18T11:02:17;4.93;;;1.70;;
55776;SDS011;54079;44.540;18.784;2022-11-18T11:05:18;3.63;;;2.20;;
55776;SDS011;54079;44.540;18.784;2022-11-18T11:07:59;2.47;;;1.95;;
55776;SDS011;54079;44.540;18.784;2022-11-18T11:10:28;2.83;;;1.48;;
55776;SDS011;54079;44.540;18.784;2022-11-18T11:12:58;1.77;;;1.60;;
55776;SDS011;54079;44.540;18.784;2022-11-18T11:21:08;2.75;;;2.25;;
55776;SDS011;54079;44.540;18.784;2022-11-18T11:23:35;4.50;;;2.45;;
55776;SDS011;54079;44.540;18.784;2022-11-18T11:26:02;2.83;;;2.22;;
55776;SDS011;54079;44.540;18.784;2022-11-18T11:34:27;5.18;;;2.50;;
55776;SDS011;54079;44.540;18.784;2022-11-18T11:40:29;6.15;;;5.00;;
55776;SDS011;54079;44.540;18.784;2022-11-18T11:43:19;2.30;;;1.85;;
55776;SDS011;54079;44.540;18.784;2022-11-18T11:59:31;3.50;;;2.63;;
55776;SDS011;54079;44.540;18.784;2022-11-18T12:05:16;3.60;;;2.60;;
55776;SDS011;54079;44.540;18.784;2022-11-18T12:08:08;3.97;;;2.85;;
55776;SDS011;54079;44.540;18.784;2022-11-18T12:19:17;8.10;;;2.88;;
55776;SDS011;54079;44.540;18.784;2022-11-18T12:26:57;3.85;;;2.30;;
55776;SDS011;54079;44.540;18.784;2022-11-18T12:29:24;7.50;;;5.18;;
55776;SDS011;54079;44.540;18.784;2022-11-18T12:31:54;3.22;;;2.78;;
55776;SDS011;54079;44.540;18.784;2022-11-18T12:34:41;3.53;;;2.67;;
55776;SDS011;54079;44.540;18.784;2022-11-18T12:42:35;3.90;;;2.58;;
55776;SDS011;54079;44.540;18.784;2022-11-18T12:53:44;14.02;;;10.98;;
55776;SDS011;54079;44.540;18.784;2022-11-18T12:58:54;9.38;;;5.82;;
55776;SDS011;54079;44.540;18.784;2022-11-18T13:01:22;12.55;;;8.20;;
55776;SDS011;54079;44.540;18.784;2022-11-18T13:03:51;7.15;;;5.97;;
55776;SDS011;54079;44.540;18.784;2022-11-18T13:06:29;5.95;;;5.03;;
55776;SDS011;54079;44.540;18.784;2022-11-18T13:08:57;7.78;;;4.70;;
55776;SDS011;54079;44.540;18.784;2022-11-18T13:11:26;5.75;;;4.50;;
55776;SDS011;54079;44.540;18.784;2022-11-18T13:14:16;8.35;;;5.95;;
55776;SDS011;54079;44.540;18.784;2022-11-18T13:17:22;8.93;;;4.90;;
55776;SDS011;54079;44.540;18.784;2022-11-18T13:20:25;4.85;;;4.25;;
55776;SDS011;54079;44.540;18.784;2022-11-18T13:25:43;5.68;;;5.00;;
55776;SDS011;54079;44.540;18.784;2022-11-18T13:28:23;5.38;;;4.28;;
55776;SDS011;54079;44.540;18.784;2022-11-18T13:30:54;4.07;;;3.40;;
55776;SDS011;54079;44.540;18.784;2022-11-18T13:33:22;3.92;;;3.10;;
55776;SDS011;54079;44.540;18.784;2022-11-18T13:35:49;2.10;;;1.98;;
55776;SDS011;54079;44.540;18.784;2022-11-18T13:38:24;2.88;;;2.22;;
55776;SDS011;54079;44.540;18.784;2022-11-18T13:40:50;3.72;;;3.38;;
55776;SDS011;54079;44.540;18.784;2022-11-18T13:43:29;2.65;;;1.95;;
55776;SDS011;54079;44.540;18.784;2022-11-18T13:45:57;1.67;;;1.58;;
55776;SDS011;54079;44.540;18.784;2022-11-18T13:48:26;2.03;;;1.83;;
55776;SDS011;54079;44.540;18.784;2022-11-18T13:50:53;2.28;;;1.92;;
55776;SDS011;54079;44.540;18.784;2022-11-18T13:53:43;3.70;;;2.75;;
55776;SDS011;54079;44.540;18.784;2022-11-18T14:01:16;1.60;;;1.50;;
55776;SDS011;54079;44.540;18.784;2022-11-18T14:03:51;2.25;;;1.77;;
55776;SDS011;54079;44.540;18.784;2022-11-18T14:06:38;3.17;;;2.28;;
55776;SDS011;54079;44.540;18.784;2022-11-18T14:11:56;2.13;;;1.55;;
55776;SDS011;54079;44.540;18.784;2022-11-18T14:14:34;1.95;;;1.48;;
55776;SDS011;54079;44.540;18.784;2022-11-18T14:17:03;1.95;;;1.33;;
55776;SDS011;54079;44.540;18.784;2022-11-18T14:19:29;2.13;;;1.25;;
55776;SDS011;54079;44.540;18.784;2022-11-18T14:22:03;1.40;;;1.02;;
55776;SDS011;54079;44.540;18.784;2022-11-18T14:24:31;1.35;;;0.93;;
55776;SDS011;54079;44.540;18.784;2022-11-18T14:26:57;1.42;;;1.33;;
55776;SDS011;54079;44.540;18.784;2022-11-18T14:29:23;1.13;;;0.80;;
55776;SDS011;54079;44.540;18.784;2022-11-18T14:34:38;1.70;;;1.48;;
55776;SDS011;54079;44.540;18.784;2022-11-18T14:37:08;4.93;;;1.48;;
55776;SDS011;54079;44.540;18.784;2022-11-18T14:39:38;1.73;;;1.17;;
55776;SDS011;54079;44.540;18.784;2022-11-18T14:42:04;1.40;;;1.20;;
55776;SDS011;54079;44.540;18.784;2022-11-18T14:44:34;2.50;;;1.58;;
55776;SDS011;54079;44.540;18.784;2022-11-18T14:47:01;3.17;;;2.15;;
55776;SDS011;54079;44.540;18.784;2022-11-18T14:49:33;5.03;;;3.97;;
55776;SDS011;54079;44.540;18.784;2022-11-18T14:52:01;7.00;;;4.30;;
55776;SDS011;54079;44.540;18.784;2022-11-18T14:54:28;7.35;;;5.82;;
55776;SDS011;54079;44.540;18.784;2022-11-18T14:56:55;9.65;;;7.28;;
55776;SDS011;54079;44.540;18.784;2022-11-18T14:59:25;7.28;;;5.70;;
55776;SDS011;54079;44.540;18.784;2022-11-18T15:01:54;8.75;;;6.65;;
55776;SDS011;54079;44.540;18.784;2022-11-18T15:04:21;7.20;;;6.15;;
55776;SDS011;54079;44.540;18.784;2022-11-18T15:06:47;8.43;;;6.13;;
55776;SDS011;54079;44.540;18.784;2022-11-18T15:09:13;5.95;;;4.47;;
55776;SDS011;54079;44.540;18.784;2022-11-18T15:11:39;5.43;;;4.57;;
55776;SDS011;54079;44.540;18.784;2022-11-18T15:14:05;7.03;;;6.15;;
55776;SDS011;54079;44.540;18.784;2022-11-18T15:16:31;9.32;;;7.78;;
55776;SDS011;54079;44.540;18.784;2022-11-18T15:18:59;19.40;;;14.93;;
55776;SDS011;54079;44.540;18.784;2022-11-18T15:21:27;23.15;;;16.23;;
55776;SDS011;54079;44.540;18.784;2022-11-18T15:23:53;23.13;;;18.45;;
55776;SDS011;54079;44.540;18.784;2022-11-18T15:28:53;21.73;;;16.90;;
55776;SDS011;54079;44.540;18.784;2022-11-18T15:31:21;28.13;;;19.15;;
55776;SDS011;54079;44.540;18.784;2022-11-18T15:33:47;28.83;;;20.27;;
55776;SDS011;54079;44.540;18.784;2022-11-18T15:36:16;36.42;;;22.38;;
55776;SDS011;54079;44.540;18.784;2022-11-18T15:38:44;31.90;;;20.15;;
55776;SDS011;54079;44.540;18.784;2022-11-18T15:41:17;31.08;;;19.85;;
55776;SDS011;54079;44.540;18.784;2022-11-18T15:43:45;28.30;;;18.85;;
55776;SDS011;54079;44.540;18.784;2022-11-18T15:46:12;27.33;;;17.45;;
55776;SDS011;54079;44.540;18.784;2022-11-18T15:48:39;29.27;;;19.77;;
55776;SDS011;54079;44.540;18.784;2022-11-18T15:51:05;26.73;;;18.05;;
55776;SDS011;54079;44.540;18.784;2022-11-18T15:53:32;27.40;;;17.00;;
55776;SDS011;54079;44.540;18.784;2022-11-18T15:58:58;23.05;;;16.33;;
55776;SDS011;54079;44.540;18.784;2022-11-18T16:01:33;23.65;;;16.63;;
55776;SDS011;54079;44.540;18.784;2022-11-18T16:04:02;24.92;;;16.77;;
55776;SDS011;54079;44.540;18.784;2022-11-18T16:06:29;33.22;;;20.45;;
55776;SDS011;54079;44.540;18.784;2022-11-18T16:08:56;20.70;;;15.10;;
55776;SDS011;54079;44.540;18.784;2022-11-18T16:11:22;22.85;;;15.48;;
55776;SDS011;54079;44.540;18.784;2022-11-18T16:14:07;21.38;;;15.15;;
55776;SDS011;54079;44.540;18.784;2022-11-18T16:16:35;21.08;;;13.25;;
55776;SDS011;54079;44.540;18.784;2022-11-18T16:19:03;24.58;;;14.20;;
55776;SDS011;54079;44.540;18.784;2022-11-18T16:21:32;19.45;;;12.73;;
55776;SDS011;54079;44.540;18.784;2022-11-18T16:24:00;25.38;;;14.85;;
55776;SDS011;54079;44.540;18.784;2022-11-18T16:26:28;22.63;;;14.63;;
55776;SDS011;54079;44.540;18.784;2022-11-18T16:28:57;21.08;;;13.27;;
55776;SDS011;54079;44.540;18.784;2022-11-18T16:31:24;24.77;;;15.48;;
55776;SDS011;54079;44.540;18.784;2022-11-18T16:36:31;28.15;;;16.55;;
55776;SDS011;54079;44.540;18.784;2022-11-18T16:39:01;18.98;;;11.43;;
55776;SDS011;54079;44.540;18.784;2022-11-18T16:41:37;16.75;;;10.00;;
55776;SDS011;54079;44.540;18.784;2022-11-18T16:44:04;18.77;;;11.55;;
55776;SDS011;54079;44.540;18.784;2022-11-18T16:46:41;11.55;;;8.27;;
55776;SDS011;54079;44.540;18.784;2022-11-18T16:49:15;14.07;;;8.93;;
55776;SDS011;54079;44.540;18.784;2022-11-18T16:51:43;13.93;;;7.70;;
55776;SDS011;54079;44.540;18.784;2022-11-18T16:54:17;9.48;;;6.53;;
55776;SDS011;54079;44.540;18.784;2022-11-18T16:56:44;11.52;;;8.02;;
55776;SDS011;54079;44.540;18.784;2022-11-18T16:59:18;17.67;;;10.27;;
55776;SDS011;54079;44.540;18.784;2022-11-18T17:01:53;17.73;;;10.85;;
55776;SDS011;54079;44.540;18.784;2022-11-18T17:04:21;12.68;;;7.53;;